Date,TemperatureHighF,TemperatureAvgF,TemperatureLowF,DewpointHighF,DewpointAvgF,DewpointLowF,HumidityHigh,HumidityAvg,HumidityLow,PressureMaxIn,PressureMinIn,WindSpeedMaxMPH,WindSpeedAvgMPH,GustSpeedMaxMPH,PrecipitationSumIn
2013-11-1,74.1,58.7,47.3,46.2,38.0,19.2,84,52,14,28.68,28.30,21,5,21,0.00
2013-11-2,69.8,54.6,39.2,35.2,29.5,19.0,74,43,15,28.85,28.65,13,3,13,0.00
2013-11-3,68.5,54.9,42.4,45.5,35.8,29.8,74,51,24,28.66,28.38,23,7,23,0.01
2013-11-4,76.3,60.7,49.5,57.4,49.1,42.8,97,68,39,28.51,28.39,20,7,20,0.02
2013-11-5,75.0,62.5,49.3,64.9,59.7,44.2,99,91,70,28.60,28.33,33,8,33,0.48
2013-11-6,60.4,48.4,41.9,44.4,36.2,31.3,86,65,34,28.88,28.59,17,4,17,0.50
2013-11-7,68.7,50.9,35.4,39.6,32.4,20.3,91,56,16,28.98,28.83,15,3,15,0.00
2013-11-8,68.4,53.8,41.5,41.9,30.9,12.6,72,48,13,28.83,28.52,27,9,27,0.00
2013-11-9,70.3,55.9,44.4,51.8,45.1,39.4,95,69,42,28.70,28.52,13,4,13,0.00
2013-11-10,67.8,55.9,49.6,56.8,52.7,49.3,99,90,67,28.83,28.70,14,2,14,0.00
2013-11-11,71.6,58.4,43.2,58.5,54.5,39.0,99,88,61,28.95,28.64,30,6,30,0.14
2013-11-12,46.2,37.2,26.1,39.0,17.9,7.7,85,49,22,29.26,28.94,27,9,27,0.17
2013-11-13,54.0,36.8,19.2,54.0,12.7,-3.3,78,42,10,29.15,28.75,15,5,15,0.00
2013-11-14,57.2,44.1,32.2,40.8,29.8,18.9,73,58,37,28.75,28.41,21,7,21,0.02
2013-11-15,70.7,54.2,35.2,48.9,37.7,31.1,88,57,27,28.45,28.22,15,5,15,0.00
2013-11-16,85.1,71.0,60.3,57.0,48.5,34.0,77,49,18,28.22,28.02,32,14,32,0.70
2013-11-17,75.6,64.1,52.5,54.7,38.1,21.0,86,45,15,28.59,28.11,21,8,21,0.00
2013-11-18,66.0,55.5,45.3,31.3,21.0,9.3,40,27,13,28.76,28.59,15,3,15,0.00
2013-11-19,67.1,57.9,51.4,41.2,36.4,31.3,56,45,34,28.66,28.39,21,9,21,0.00
2013-11-20,77.4,63.5,53.1,59.4,51.2,38.1,87,65,43,28.40,28.26,19,10,19,0.00
2013-11-21,78.3,52.6,31.3,63.0,46.4,22.5,97,80,36,28.92,28.37,30,12,30,0.30
2013-11-22,31.6,29.2,27.1,28.4,23.6,17.8,94,80,65,29.07,28.90,28,8,28,0.17
2013-11-23,37.6,34.1,31.1,26.2,21.9,12.4,76,62,41,29.11,29.00,23,4,23,0.00
2013-11-24,33.1,27.3,24.4,26.8,24.0,21.2,99,88,65,29.13,28.76,19,4,19,0.00
2013-11-25,35.2,31.4,26.8,32.9,30.3,24.8,99,96,88,28.76,28.64,11,2,11,0.05
2013-11-26,37.2,31.6,25.7,32.0,27.5,23.7,97,86,65,28.91,28.69,15,3,15,0.00
2013-11-27,46.8,37.7,27.7,25.7,24.0,22.1,89,59,39,28.91,28.73,15,4,15,0.00
2013-11-28,59.7,42.9,28.8,37.4,28.5,20.1,88,61,23,28.84,28.71,13,3,13,0.00
2013-11-29,60.8,45.1,31.1,37.6,32.2,27.1,87,64,33,28.88,28.71,21,7,21,0.00
2013-11-30,67.1,50.5,39.7,46.4,42.3,37.0,93,76,44,28.72,28.56,9,2,9,0.00